createdAt,value
2019-04-29T00:03:07.973Z,3.50
2019-04-29T00:09:16.006Z,4.28
2019-04-29T00:15:29.252Z,7.45
2019-04-29T00:21:31.729Z,7.17
2019-04-29T00:27:33.954Z,4.85
2019-04-29T00:33:38.596Z,5.60
2019-04-29T00:39:59.232Z,5.97
2019-04-29T00:46:01.539Z,5.97
2019-04-29T00:52:03.958Z,7.25
2019-04-29T00:58:06.199Z,5.15
2019-04-29T01:04:08.648Z,6.28
2019-04-29T01:10:11.104Z,4.53
2019-04-29T01:16:13.405Z,5.72
2019-04-29T01:22:15.940Z,6.78
2019-04-29T01:28:20.133Z,5.40
2019-04-29T01:34:26.473Z,3.95
2019-04-29T01:40:47.281Z,5.85
2019-04-29T01:46:49.552Z,7.33
2019-04-29T01:52:51.832Z,5.67
2019-04-29T01:58:54.163Z,6.10
2019-04-29T02:04:56.394Z,4.22
2019-04-29T02:10:58.558Z,11.22
2019-04-29T02:17:00.740Z,8.88
2019-04-29T02:23:05.197Z,5.80
2019-04-29T02:29:07.462Z,5.12
2019-04-29T02:35:12.130Z,4.40
2019-04-29T02:41:19.226Z,6.60
2019-04-29T02:47:21.389Z,4.67
2019-04-29T02:53:23.676Z,5.42
2019-04-29T02:59:36.800Z,6.22
2019-04-29T03:05:47.037Z,6.08
2019-04-29T03:11:49.481Z,7.45
2019-04-29T03:17:51.715Z,4.70
2019-04-29T03:23:53.966Z,7.20
2019-04-29T03:29:56.351Z,6.17
2019-04-29T03:36:00.745Z,6.03
2019-04-29T03:42:07.254Z,4.40
2019-04-29T03:48:08.299Z,4.60
2019-04-29T03:54:10.574Z,4.92
2019-04-29T04:00:15.070Z,7.60
2019-04-29T04:06:28.490Z,8.80
2019-04-29T04:12:30.737Z,5.08
2019-04-29T04:18:34.968Z,9.75
2019-04-29T04:24:37.227Z,7.42
2019-04-29T04:30:39.571Z,9.50
2019-04-29T04:36:41.890Z,10.93
2019-04-29T04:42:44.278Z,11.45
2019-04-29T04:48:46.506Z,10.75
2019-04-29T04:54:50.706Z,8.35
2019-04-29T05:00:53.102Z,11.30
2019-04-29T05:06:55.481Z,8.98
2019-04-29T05:12:57.981Z,10.88
2019-04-29T05:19:00.373Z,11.43
2019-04-29T05:25:03.302Z,9.63
2019-04-29T05:31:05.656Z,7.05
2019-04-29T05:37:09.974Z,8.88
2019-04-29T05:43:14.179Z,8.60
2019-04-29T05:49:21.467Z,12.25
2019-04-29T05:55:28.239Z,9.65
2019-04-29T06:01:31.239Z,10.63
2019-04-29T06:07:33.611Z,11.30
2019-04-29T06:13:36.027Z,11.73
2019-04-29T06:19:39.344Z,13.05
2019-04-29T06:25:43.675Z,9.75
2019-04-29T06:31:45.953Z,9.18
2019-04-29T06:37:49.545Z,9.80
2019-04-29T06:43:54.190Z,10.28
2019-04-29T06:49:56.038Z,8.95
2019-04-29T06:55:58.294Z,10.13
2019-04-29T07:02:00.759Z,8.83
2019-04-29T07:08:03.246Z,11.68
2019-04-29T07:14:05.624Z,8.68
2019-04-29T07:20:08.669Z,8.78
2019-04-29T07:26:11.048Z,9.45
2019-04-29T07:32:13.491Z,10.70
2019-04-29T07:38:15.866Z,9.75
2019-04-29T07:44:19.701Z,10.38
2019-04-29T07:50:22.496Z,10.48
2019-04-29T07:56:26.494Z,10.63
2019-04-29T08:02:28.788Z,9.83
2019-04-29T08:08:32.612Z,11.30
2019-04-29T08:14:36.736Z,12.18
2019-04-29T08:20:40.163Z,11.22
2019-04-29T08:26:47.252Z,10.70
2019-04-29T08:32:47.601Z,12.63
2019-04-29T08:38:50.053Z,12.58
2019-04-29T08:44:54.757Z,8.68
2019-04-29T08:50:58.360Z,10.23
2019-04-29T08:57:19.961Z,13.00
2019-04-29T09:03:23.454Z,12.15
2019-04-29T09:09:29.280Z,12.50
2019-04-29T09:15:30.719Z,11.95
2019-04-29T09:21:33.153Z,11.63
2019-04-29T09:27:40.709Z,12.88
2019-04-29T09:33:44.077Z,10.40
2019-04-29T09:39:47.045Z,12.05
2019-04-29T09:45:58.859Z,14.40
2019-04-29T09:52:01.772Z,13.05
2019-04-29T09:58:04.125Z,14.18
2019-04-29T10:04:08.711Z,14.87
2019-04-29T10:10:11.696Z,16.77
2019-04-29T10:16:15.842Z,14.25
2019-04-29T10:22:18.275Z,13.40
2019-04-29T10:28:21.040Z,15.60
2019-04-29T10:34:27.025Z,12.37
2019-04-29T10:40:36.149Z,12.90
2019-04-29T10:46:55.564Z,14.80
2019-04-29T10:52:57.866Z,16.00
2019-04-29T10:59:00.384Z,16.57
2019-04-29T11:05:22.732Z,14.98
2019-04-29T11:11:27.371Z,17.90
2019-04-29T11:17:29.847Z,14.60
2019-04-29T11:23:38.715Z,14.58
2019-04-29T11:29:41.214Z,11.97
2019-04-29T11:35:54.628Z,11.40
2019-04-29T11:41:59.784Z,13.22
2019-04-29T11:48:01.698Z,13.58
2019-04-29T11:54:10.884Z,15.65
2019-04-29T12:00:15.071Z,17.10
2019-04-29T12:06:20.869Z,16.65
2019-04-29T12:12:22.986Z,15.93
2019-04-29T12:18:27.215Z,13.58
2019-04-29T12:24:29.627Z,12.85
2019-04-29T12:30:34.985Z,15.55
2019-04-29T12:36:54.733Z,15.75
2019-04-29T12:43:01.019Z,14.55
2019-04-29T12:49:08.572Z,13.80
2019-04-29T12:55:20.071Z,17.02
2019-04-29T13:01:50.362Z,16.05
2019-04-29T13:07:39.269Z,11.70
2019-04-29T13:13:41.646Z,9.38
2019-04-29T13:20:00.996Z,11.10
2019-04-29T13:25:55.351Z,8.78
2019-04-29T13:31:54.929Z,8.15
2019-04-29T13:37:57.566Z,7.53
2019-04-29T13:44:05.351Z,7.85
2019-04-29T13:50:17.811Z,6.87
2019-04-29T13:56:32.272Z,7.05
2019-04-29T14:02:22.794Z,8.50
2019-04-29T14:08:28.769Z,10.43
2019-04-29T14:14:29.044Z,7.78
2019-04-29T14:20:31.683Z,7.22
2019-04-29T14:26:37.109Z,5.95
2019-04-29T14:32:42.376Z,5.80
2019-04-29T14:38:42.648Z,5.58
2019-04-29T14:44:53.015Z,5.33
2019-04-29T14:50:56.119Z,8.60
2019-04-29T14:56:59.469Z,7.47
2019-04-29T15:03:02.842Z,6.58
2019-04-29T15:09:16.804Z,7.10
2019-04-29T15:15:34.250Z,8.53
2019-04-29T15:21:45.632Z,7.80
2019-04-29T15:27:48.892Z,9.33
2019-04-29T15:33:51.494Z,7.78
2019-04-29T15:39:53.860Z,6.75
2019-04-29T15:45:56.431Z,7.95
2019-04-29T15:51:59.056Z,8.45
2019-04-29T15:58:01.408Z,7.17
2019-04-29T16:04:06.785Z,6.85
2019-04-29T16:10:28.109Z,7.53
2019-04-29T16:16:30.614Z,6.67
2019-04-29T16:22:38.567Z,6.17
2019-04-29T16:28:40.046Z,11.25
2019-04-29T16:34:45.129Z,4.55
2019-04-29T16:40:47.491Z,5.67
2019-04-29T16:46:52.193Z,4.70
2019-04-29T16:52:54.693Z,5.40
2019-04-29T16:58:56.953Z,6.05
2019-04-29T17:04:59.423Z,5.12
2019-04-29T17:11:17.554Z,6.45
2019-04-29T17:17:29.003Z,6.40
2019-04-29T17:23:39.160Z,7.17
2019-04-29T17:30:03.554Z,9.68
2019-04-29T17:36:25.769Z,7.42
2019-04-29T17:42:30.240Z,4.50
2019-04-29T17:48:41.604Z,3.83
2019-04-29T17:54:45.974Z,5.00
2019-04-29T18:00:59.676Z,4.45
2019-04-29T18:07:11.981Z,4.58
2019-04-29T18:13:12.373Z,5.80
2019-04-29T18:19:20.103Z,4.80
2019-04-29T18:25:36.551Z,5.72
2019-04-29T18:31:38.037Z,10.43
2019-04-29T18:37:40.473Z,5.28
2019-04-29T18:43:42.842Z,13.15
2019-04-29T18:49:47.178Z,8.03
2019-04-29T18:55:49.689Z,7.08
2019-04-29T19:01:52.108Z,5.15
2019-04-29T19:08:10.932Z,5.10
2019-04-29T19:14:00.374Z,6.97
2019-04-29T19:20:04.241Z,6.12
2019-04-29T19:26:06.505Z,4.80
2019-04-29T19:32:09.046Z,17.10
2019-04-29T19:38:13.484Z,6.40
2019-04-29T19:44:15.777Z,6.42
2019-04-29T19:50:19.663Z,6.12
2019-04-29T19:56:24.595Z,7.90
2019-04-29T20:02:27.313Z,9.20
2019-04-29T20:08:50.062Z,6.72
2019-04-29T20:14:37.174Z,4.58
2019-04-29T20:20:41.413Z,5.87
2019-04-29T20:26:46.528Z,4.12
2019-04-29T20:32:48.358Z,5.08
2019-04-29T20:38:50.781Z,4.20
2019-04-29T20:44:55.078Z,4.87
2019-04-29T20:51:10.041Z,5.10
2019-04-29T20:57:05.408Z,4.47
2019-04-29T21:03:14.616Z,6.08
2019-04-29T21:09:22.019Z,4.80
2019-04-29T21:15:27.654Z,4.78
2019-04-29T21:21:30.028Z,5.78
2019-04-29T21:27:32.429Z,5.40
2019-04-29T21:33:35.534Z,4.97
2019-04-29T21:39:39.919Z,5.70
2019-04-29T21:45:46.163Z,7.12
2019-04-29T21:51:49.778Z,5.72
2019-04-29T21:57:50.396Z,6.22
2019-04-29T22:03:52.728Z,7.17
2019-04-29T22:09:56.164Z,8.50
2019-04-29T22:15:58.729Z,8.25
2019-04-29T22:22:01.613Z,8.83
2019-04-29T22:28:05.090Z,9.33
2019-04-29T22:34:10.023Z,9.58
2019-04-29T22:40:12.929Z,10.20
2019-04-29T22:46:17.492Z,14.38
2019-04-29T22:52:20.077Z,12.43
2019-04-29T22:58:22.388Z,11.73
2019-04-29T23:04:25.020Z,12.00
2019-04-29T23:10:31.500Z,9.75
2019-04-29T23:16:35.697Z,12.28
2019-04-29T23:22:42.451Z,10.50
2019-04-29T23:28:45.844Z,10.82
2019-04-29T23:34:48.402Z,11.12
2019-04-29T23:40:56.424Z,11.10
2019-04-29T23:47:05.187Z,12.10
2019-04-29T23:53:06.996Z,10.03
2019-04-29T23:59:18.485Z,10.98
